Time;durP1;ratioP1;P1;durP2;ratioP2;P2;SDS_P1;SDS_P2;PMS_P1;PMS_P2;Temp;Humidity;BMP_temperature;BMP_pressure;BME280_temperature;BME280_humidity;BME280_pressure;Samples;Min_cycle;Max_cycle;Signal;HPM_P1;HPM_P2
2021/07/17 00:00:45;;;;;;;24.40;17.90;;;21.30;99.90;;;;;;5005509;28;20192;-73
2021/07/17 00:03:11;;;;;;;19.60;17.23;;;21.30;99.90;;;;;;5002416;28;20182;-73
2021/07/17 00:05:37;;;;;;;23.57;17.33;;;21.30;99.90;;;;;;5006532;28;20494;-73
2021/07/17 00:08:04;;;;;;;26.43;19.10;;;21.40;99.90;;;;;;5002624;28;20576;-72
2021/07/17 00:10:40;;;;;;;24.73;17.07;;;21.40;99.90;;;;;;5003858;28;20444;-72
2021/07/17 00:13:06;;;;;;;24.60;17.57;;;21.50;99.90;;;;;;5002108;28;20444;-73
2021/07/17 00:15:33;;;;;;;22.50;19.07;;;21.50;99.90;;;;;;5007071;28;20554;-74
2021/07/17 00:17:59;;;;;;;25.10;17.50;;;21.50;99.90;;;;;;5006108;28;20431;-74
2021/07/17 00:20:24;;;;;;;23.83;16.60;;;21.60;99.90;;;;;;5005498;28;20439;-73
2021/07/17 00:22:50;;;;;;;22.13;17.33;;;21.60;99.90;;;;;;4999902;28;20296;-73
2021/07/17 00:25:18;;;;;;;25.13;17.53;;;21.70;99.90;;;;;;5003301;28;20223;-73
2021/07/17 00:27:44;;;;;;;26.07;19.13;;;21.50;99.90;;;;;;5005600;28;20859;-73
2021/07/17 00:30:11;;;;;;;20.70;17.30;;;21.70;99.90;;;;;;5003750;28;20436;-73
2021/07/17 00:32:37;;;;;;;22.17;18.67;;;21.50;99.90;;;;;;5005334;28;20428;-73
2021/07/17 00:35:04;;;;;;;26.70;20.50;;;21.60;99.90;;;;;;5003876;28;20539;-73
2021/07/17 00:37:30;;;;;;;23.47;18.00;;;21.30;99.90;;;;;;5004578;28;20591;-74
2021/07/17 00:39:56;;;;;;;24.40;18.20;;;21.30;99.90;;;;;;5004598;28;20507;-73
2021/07/17 00:42:21;;;;;;;25.30;18.70;;;21.10;99.90;;;;;;5004420;28;20309;-73
2021/07/17 00:44:47;;;;;;;26.93;20.50;;;21.10;99.90;;;;;;5003805;28;20276;-73
2021/07/17 00:47:17;;;;;;;24.27;19.80;;;21.20;99.90;;;;;;5001723;28;20192;-73
2021/07/17 00:49:42;;;;;;;23.37;18.17;;;20.90;99.90;;;;;;5003873;28;20200;-73
2021/07/17 00:52:09;;;;;;;25.50;18.40;;;21.10;99.90;;;;;;5002717;28;20519;-73
2021/07/17 00:54:35;;;;;;;23.73;17.60;;;21.00;99.90;;;;;;5003464;28;20471;-72
2021/07/17 00:57:05;;;;;;;21.87;17.40;;;21.00;99.90;;;;;;5002808;28;20483;-73
2021/07/17 00:59:34;;;;;;;21.77;17.93;;;21.10;99.90;;;;;;5007297;28;20443;-73
2021/07/17 01:02:01;;;;;;;21.30;17.97;;;21.20;99.90;;;;;;5003492;28;20511;-72
2021/07/17 01:04:28;;;;;;;22.40;16.83;;;21.40;99.90;;;;;;5005856;28;20479;-72
2021/07/17 01:06:56;;;;;;;21.43;17.40;;;21.20;99.90;;;;;;4999992;28;20451;-72
2021/07/17 01:09:21;;;;;;;22.83;18.60;;;21.20;99.90;;;;;;5007274;28;20944;-73
2021/07/17 01:11:47;;;;;;;21.30;16.73;;;21.10;99.90;;;;;;5003646;28;20474;-72
2021/07/17 01:14:13;;;;;;;22.70;19.03;;;20.80;99.90;;;;;;5002611;28;20271;-72
2021/07/17 01:16:39;;;;;;;23.87;19.07;;;20.80;99.90;;;;;;5007611;28;20205;-72
2021/07/17 01:19:08;;;;;;;24.50;17.50;;;20.70;99.90;;;;;;5002575;28;20467;-73
2021/07/17 01:21:34;;;;;;;24.07;18.23;;;21.00;99.90;;;;;;5006284;28;20428;-72
2021/07/17 01:24:00;;;;;;;23.67;18.63;;;21.00;99.90;;;;;;5005317;28;20455;-73
2021/07/17 01:26:26;;;;;;;20.63;17.53;;;21.00;99.90;;;;;;5006985;28;20174;-72
2021/07/17 01:28:52;;;;;;;21.30;17.57;;;20.90;99.90;;;;;;5008276;28;20454;-73
2021/07/17 01:31:18;;;;;;;24.93;19.03;;;20.80;99.90;;;;;;5030742;28;20180;-73
2021/07/17 01:33:44;;;;;;;21.47;17.57;;;20.90;99.90;;;;;;5028201;28;20205;-73
2021/07/17 01:36:09;;;;;;;25.83;18.13;;;20.70;99.90;;;;;;5030679;28;20518;-72
2021/07/17 01:38:35;;;;;;;24.13;19.30;;;20.80;99.90;;;;;;5030289;28;20189;-73
2021/07/17 01:41:02;;;;;;;30.33;19.10;;;20.90;99.90;;;;;;5019566;28;20197;-73
2021/07/17 01:43:27;;;;;;;23.83;17.60;;;20.90;99.90;;;;;;5007198;28;20244;-72
2021/07/17 01:45:58;;;;;;;21.33;16.47;;;21.10;99.90;;;;;;5007314;28;20464;-73
2021/07/17 01:48:24;;;;;;;22.70;18.73;;;20.90;99.90;;;;;;5003236;28;20196;-72
2021/07/17 01:50:50;;;;;;;21.27;17.40;;;21.00;99.90;;;;;;5004761;28;20436;-74
2021/07/17 01:53:15;;;;;;;19.70;16.40;;;21.10;99.90;;;;;;5003892;28;20232;-73
2021/07/17 01:55:41;;;;;;;24.10;17.80;;;21.00;99.90;;;;;;5000649;28;20223;-73
2021/07/17 01:58:08;;;;;;;26.90;20.20;;;21.10;99.90;;;;;;5003541;28;20404;-73
2021/07/17 02:00:34;;;;;;;22.40;18.10;;;21.20;99.90;;;;;;5004665;28;20424;-75
2021/07/17 02:03:00;;;;;;;24.60;18.50;;;21.00;99.90;;;;;;5002123;28;20815;-73
2021/07/17 02:05:26;;;;;;;22.50;17.97;;;21.10;99.90;;;;;;4999751;28;20443;-73
2021/07/17 02:07:53;;;;;;;21.80;17.90;;;21.10;99.90;;;;;;5002848;28;20431;-73
2021/07/17 02:10:24;;;;;;;22.43;20.03;;;21.10;99.90;;;;;;5000588;28;20439;-73
2021/07/17 02:13:05;;;;;;;27.60;19.17;;;21.00;99.90;;;;;;5002399;28;20437;-75
2021/07/17 02:15:34;;;;;;;25.13;18.30;;;21.00;99.90;;;;;;5002397;28;20466;-74
2021/07/17 02:18:01;;;;;;;20.60;17.67;;;21.00;99.90;;;;;;5000379;28;20543;-73
2021/07/17 02:20:28;;;;;;;18.90;16.50;;;20.90;99.90;;;;;;5003198;28;20432;-74
2021/07/17 02:22:54;;;;;;;29.80;19.43;;;20.80;99.90;;;;;;5001072;28;20443;-73
2021/07/17 02:25:20;;;;;;;23.00;17.50;;;20.80;99.90;;;;;;5000518;28;20502;-74
2021/07/17 02:27:46;;;;;;;22.50;19.10;;;20.90;99.90;;;;;;5002252;28;20424;-72
2021/07/17 02:30:13;;;;;;;23.30;18.43;;;20.80;99.90;;;;;;5003281;28;20424;-72
2021/07/17 02:32:38;;;;;;;20.40;18.20;;;20.80;99.90;;;;;;5000016;28;20197;-73
2021/07/17 02:35:05;;;;;;;24.33;18.93;;;20.90;99.90;;;;;;4999489;28;20461;-72
2021/07/17 02:37:30;;;;;;;18.63;16.47;;;20.90;99.90;;;;;;4996657;28;20209;-72
2021/07/17 02:39:56;;;;;;;21.60;18.77;;;20.90;99.90;;;;;;5000799;28;20814;-73
2021/07/17 02:42:22;;;;;;;25.10;18.63;;;21.00;99.90;;;;;;5000911;28;20201;-72
2021/07/17 02:44:49;;;;;;;26.70;18.80;;;21.10;99.90;;;;;;5006177;28;20212;-72
2021/07/17 02:47:15;;;;;;;19.60;17.50;;;21.00;99.90;;;;;;5002185;28;20435;-72
2021/07/17 02:49:41;;;;;;;23.83;18.97;;;20.80;99.90;;;;;;5004191;28;20491;-72
2021/07/17 02:52:07;;;;;;;26.40;18.90;;;20.80;99.90;;;;;;5003991;28;20946;-72
2021/07/17 02:54:32;;;;;;;27.90;18.20;;;20.90;99.90;;;;;;4999684;28;20225;-74
2021/07/17 02:56:58;;;;;;;23.20;17.43;;;21.00;99.90;;;;;;5000035;28;20196;-74
2021/07/17 02:59:24;;;;;;;27.43;17.77;;;21.10;99.90;;;;;;4982144;28;20193;-73
2021/07/17 03:01:49;;;;;;;20.03;16.77;;;21.00;99.90;;;;;;5000837;28;20212;-72
2021/07/17 03:04:15;;;;;;;22.97;17.73;;;20.90;99.90;;;;;;4999955;28;20213;-75
2021/07/17 03:06:41;;;;;;;26.63;18.40;;;20.90;99.90;;;;;;5001159;28;20213;-73
2021/07/17 03:09:06;;;;;;;25.43;19.00;;;21.00;99.90;;;;;;4983233;28;20264;-73
2021/07/17 03:11:33;;;;;;;22.57;18.70;;;21.00;99.90;;;;;;4999215;28;20223;-73
2021/07/17 03:14:00;;;;;;;23.20;18.30;;;21.10;99.90;;;;;;4999343;28;20216;-73
2021/07/17 03:16:25;;;;;;;21.53;18.67;;;21.10;99.90;;;;;;5003215;28;20476;-73
2021/07/17 03:18:52;;;;;;;21.70;18.37;;;20.90;99.90;;;;;;5001641;28;20927;-72
2021/07/17 03:21:19;;;;;;;27.53;19.50;;;20.90;99.90;;;;;;5005013;28;20228;-73
2021/07/17 03:23:44;;;;;;;25.10;19.93;;;20.80;99.90;;;;;;5000107;28;20457;-73
2021/07/17 03:26:10;;;;;;;27.77;19.60;;;20.90;99.90;;;;;;5001287;28;20521;-73
2021/07/17 03:28:36;;;;;;;23.23;17.63;;;21.00;99.90;;;;;;5001077;28;20243;-74
2021/07/17 03:31:02;;;;;;;22.30;19.03;;;21.00;99.90;;;;;;5000189;28;20981;-73
2021/07/17 03:33:29;;;;;;;27.80;18.83;;;20.90;99.90;;;;;;5002029;28;20986;-73
2021/07/17 03:35:57;;;;;;;25.93;18.07;;;21.10;99.90;;;;;;5000196;28;20212;-73
2021/07/17 03:38:23;;;;;;;24.93;19.07;;;21.00;99.90;;;;;;4999328;28;20514;-73
2021/07/17 03:40:49;;;;;;;20.13;17.40;;;21.00;99.90;;;;;;4998643;28;20565;-73
2021/07/17 03:43:14;;;;;;;20.23;18.03;;;21.10;99.90;;;;;;5005483;28;20431;-73
2021/07/17 03:45:40;;;;;;;22.60;19.07;;;20.90;99.90;;;;;;5001772;28;20194;-73
2021/07/17 03:48:06;;;;;;;22.43;18.30;;;21.00;99.90;;;;;;4998624;28;20661;-73
2021/07/17 03:50:32;;;;;;;21.37;19.10;;;21.00;99.90;;;;;;5002163;28;20257;-73
2021/07/17 03:52:57;;;;;;;28.23;19.20;;;21.00;99.90;;;;;;4985238;28;20583;-72
2021/07/17 03:55:23;;;;;;;22.97;18.47;;;20.90;99.90;;;;;;5003026;28;20201;-73
2021/07/17 03:57:49;;;;;;;23.67;19.13;;;20.80;99.90;;;;;;4999671;28;20237;-72
2021/07/17 04:00:15;;;;;;;29.07;21.00;;;20.80;99.90;;;;;;4980873;28;20185;-73
2021/07/17 04:02:42;;;;;;;26.53;18.33;;;20.90;99.90;;;;;;5003967;28;20185;-72
2021/07/17 04:05:10;;;;;;;23.03;19.17;;;20.90;99.90;;;;;;4999357;28;20456;-73
2021/07/17 04:07:36;;;;;;;21.57;18.37;;;20.90;99.90;;;;;;5001979;28;20425;-72
2021/07/17 04:10:06;;;;;;;22.63;18.70;;;20.70;99.90;;;;;;5001905;28;20443;-74
2021/07/17 04:12:32;;;;;;;23.30;18.67;;;20.70;99.90;;;;;;5002875;28;20693;-73
2021/07/17 04:14:58;;;;;;;23.93;18.57;;;20.70;99.90;;;;;;4998665;28;20457;-72
2021/07/17 04:17:24;;;;;;;25.43;18.50;;;20.90;99.90;;;;;;5002552;28;20840;-73
2021/07/17 04:19:50;;;;;;;26.40;18.50;;;21.00;99.90;;;;;;5001255;28;20433;-72
2021/07/17 04:22:15;;;;;;;24.03;17.70;;;20.80;99.90;;;;;;4966869;28;20193;-73
2021/07/17 04:24:41;;;;;;;25.70;18.97;;;20.70;99.90;;;;;;5000856;28;20445;-73
2021/07/17 04:27:07;;;;;;;22.67;18.30;;;20.90;99.90;;;;;;4999409;28;20232;-74
2021/07/17 04:29:32;;;;;;;22.83;18.17;;;21.00;99.90;;;;;;4998936;28;20756;-72
2021/07/17 04:31:58;;;;;;;25.40;20.00;;;21.00;99.90;;;;;;5003189;28;20225;-74
2021/07/17 04:34:24;;;;;;;25.83;18.37;;;21.10;99.90;;;;;;4996566;28;20293;-74
2021/07/17 04:36:50;;;;;;;26.87;20.07;;;21.10;99.90;;;;;;4998496;28;20602;-73
2021/07/17 04:39:16;;;;;;;23.10;18.87;;;21.00;99.90;;;;;;4983903;28;20190;-73
2021/07/17 04:41:41;;;;;;;27.20;20.63;;;21.10;99.90;;;;;;4996997;28;20204;-74
2021/07/17 04:44:07;;;;;;;22.37;19.77;;;21.10;99.90;;;;;;4995274;28;21026;-74
2021/07/17 04:46:33;;;;;;;24.87;19.80;;;21.00;99.90;;;;;;4996323;28;20225;-73
2021/07/17 04:48:59;;;;;;;26.73;19.27;;;20.90;99.90;;;;;;4994910;28;20652;-73
2021/07/17 04:51:25;;;;;;;28.70;19.37;;;21.00;99.90;;;;;;4980861;28;20193;-74
2021/07/17 04:53:51;;;;;;;28.50;20.40;;;21.00;99.90;;;;;;4998670;28;20312;-73
2021/07/17 04:56:16;;;;;;;24.67;19.77;;;21.10;99.90;;;;;;4996711;28;20558;-73
2021/07/17 04:58:42;;;;;;;24.50;19.70;;;21.20;99.90;;;;;;4994155;28;20328;-73
2021/07/17 05:01:08;;;;;;;27.70;19.70;;;21.20;99.90;;;;;;4996764;28;20268;-74
2021/07/17 05:03:35;;;;;;;26.27;19.27;;;21.10;99.90;;;;;;4993095;28;20205;-74
2021/07/17 05:06:01;;;;;;;24.13;19.23;;;21.10;99.90;;;;;;5002948;28;20289;-74
2021/07/17 05:08:27;;;;;;;24.80;20.53;;;21.00;99.90;;;;;;5001238;28;20464;-74
2021/07/17 05:10:53;;;;;;;24.20;18.57;;;21.10;99.90;;;;;;4996634;28;20429;-73
2021/07/17 05:13:19;;;;;;;22.50;18.73;;;21.10;99.90;;;;;;4997590;28;20209;-72
2021/07/17 05:15:45;;;;;;;30.23;18.87;;;21.10;99.90;;;;;;4996814;28;20220;-73
2021/07/17 05:18:11;;;;;;;24.70;19.73;;;21.30;99.90;;;;;;4994935;28;20194;-72
2021/07/17 05:20:38;;;;;;;26.47;19.43;;;21.30;99.90;;;;;;4997746;28;20420;-73
2021/07/17 05:23:04;;;;;;;23.20;20.20;;;21.20;99.90;;;;;;5001936;28;20424;-73
2021/07/17 05:25:30;;;;;;;22.83;19.27;;;21.20;99.90;;;;;;4998369;28;20466;-73
2021/07/17 05:27:56;;;;;;;22.50;19.27;;;21.20;99.90;;;;;;5000292;28;20185;-72
2021/07/17 05:30:22;;;;;;;23.47;19.23;;;21.20;99.90;;;;;;5002451;28;20428;-74
2021/07/17 05:32:47;;;;;;;23.53;18.37;;;21.10;99.90;;;;;;4997439;28;20675;-73
2021/07/17 05:35:13;;;;;;;26.87;19.27;;;21.10;99.90;;;;;;5002490;28;20432;-73
2021/07/17 05:37:39;;;;;;;27.80;18.90;;;21.10;99.90;;;;;;4998947;28;20225;-74
2021/07/17 05:40:06;;;;;;;23.27;19.77;;;21.20;99.90;;;;;;4995030;28;20422;-73
2021/07/17 05:42:32;;;;;;;30.97;21.00;;;21.30;99.90;;;;;;5001612;28;20185;-73
2021/07/17 05:44:58;;;;;;;27.70;19.20;;;21.10;99.90;;;;;;4993947;28;20774;-73
2021/07/17 05:47:23;;;;;;;25.47;18.90;;;21.20;99.90;;;;;;4996084;28;20470;-73
2021/07/17 05:49:49;;;;;;;24.63;17.90;;;21.20;99.90;;;;;;4995199;28;20335;-73
2021/07/17 05:52:15;;;;;;;25.07;18.17;;;21.20;99.90;;;;;;4998027;28;20189;-73
2021/07/17 05:54:43;;;;;;;23.90;19.33;;;21.30;99.90;;;;;;4962803;28;20233;-73
2021/07/17 05:57:10;;;;;;;24.53;18.70;;;21.30;99.90;;;;;;5000811;28;20296;-73
2021/07/17 05:59:38;;;;;;;21.23;19.07;;;21.30;99.90;;;;;;4998813;28;20421;-73
2021/07/17 06:02:05;;;;;;;23.80;20.77;;;21.20;99.90;;;;;;4996254;28;21170;-73
2021/07/17 06:04:31;;;;;;;22.73;19.40;;;21.20;99.90;;;;;;4999474;28;20480;-74
2021/07/17 06:06:56;;;;;;;25.67;19.80;;;21.30;99.90;;;;;;4997665;28;20443;-74
2021/07/17 06:09:23;;;;;;;24.47;19.57;;;21.40;99.90;;;;;;4998406;28;20197;-73
2021/07/17 06:11:49;;;;;;;24.03;18.40;;;21.40;99.90;;;;;;5005654;28;20212;-73
2021/07/17 06:14:15;;;;;;;22.80;18.80;;;21.40;99.90;;;;;;4996039;28;20556;-73
2021/07/17 06:16:41;;;;;;;28.00;19.20;;;21.50;99.90;;;;;;4994563;28;20595;-74
2021/07/17 06:19:07;;;;;;;23.63;18.60;;;21.60;99.90;;;;;;4995854;28;20429;-73
2021/07/17 06:21:33;;;;;;;24.30;17.67;;;21.60;99.90;;;;;;4996619;28;20437;-74
2021/07/17 06:23:58;;;;;;;22.13;17.27;;;21.70;99.90;;;;;;4996526;28;20233;-74
2021/07/17 06:26:24;;;;;;;25.23;17.53;;;21.80;99.90;;;;;;4996291;28;21515;-74
2021/07/17 06:28:50;;;;;;;25.47;18.50;;;21.80;99.90;;;;;;4995902;28;20190;-74
2021/07/17 06:31:17;;;;;;;24.87;17.33;;;21.70;99.90;;;;;;4992297;28;20894;-74
2021/07/17 06:33:43;;;;;;;20.67;17.23;;;21.70;99.90;;;;;;5000125;28;20255;-74
2021/07/17 06:36:10;;;;;;;23.97;20.80;;;21.60;99.90;;;;;;4995521;28;21050;-73
2021/07/17 06:38:35;;;;;;;22.27;17.40;;;21.70;99.90;;;;;;4993021;28;20200;-73
2021/07/17 06:41:02;;;;;;;28.13;18.87;;;21.80;99.90;;;;;;4998543;28;20955;-74
2021/07/17 06:43:28;;;;;;;21.40;16.63;;;22.00;99.90;;;;;;4990876;28;20224;-74
2021/07/17 06:45:54;;;;;;;20.00;16.80;;;22.10;99.90;;;;;;4996246;28;20455;-74
2021/07/17 06:48:19;;;;;;;20.50;16.80;;;22.20;99.90;;;;;;4996418;28;20483;-74
2021/07/17 06:50:45;;;;;;;23.07;17.20;;;22.10;99.90;;;;;;5001859;28;20336;-75
2021/07/17 06:53:11;;;;;;;22.43;17.37;;;22.10;99.90;;;;;;5003644;28;20196;-74
2021/07/17 06:55:37;;;;;;;22.57;17.80;;;22.10;99.90;;;;;;5008679;28;20220;-74
2021/07/17 06:58:03;;;;;;;19.30;16.90;;;22.20;99.90;;;;;;5028517;28;20204;-73
2021/07/17 07:00:30;;;;;;;27.10;17.10;;;22.10;99.90;;;;;;5026685;28;20448;-73
2021/07/17 07:02:55;;;;;;;21.20;18.70;;;22.20;99.90;;;;;;5022927;28;20192;-73
2021/07/17 07:05:21;;;;;;;20.53;17.37;;;22.30;99.90;;;;;;5016770;28;20453;-73
2021/07/17 07:07:47;;;;;;;21.67;16.53;;;22.20;99.90;;;;;;5008572;28;20232;-74
2021/07/17 07:10:12;;;;;;;19.07;16.67;;;22.20;99.90;;;;;;4994876;28;20231;-74
2021/07/17 07:12:39;;;;;;;23.37;16.10;;;22.00;99.90;;;;;;4979379;28;20828;-74
2021/07/17 07:15:09;;;;;;;20.40;16.40;;;22.20;99.90;;;;;;4995573;28;20742;-74
2021/07/17 07:17:36;;;;;;;23.93;17.10;;;22.20;99.90;;;;;;4997349;28;20484;-74
2021/07/17 07:20:04;;;;;;;21.97;16.43;;;22.10;99.90;;;;;;4996053;28;20453;-74
2021/07/17 07:22:29;;;;;;;18.93;16.90;;;21.90;99.90;;;;;;4995026;28;20979;-74
2021/07/17 07:24:55;;;;;;;24.60;17.60;;;21.80;99.90;;;;;;4997338;28;20448;-75
2021/07/17 07:27:21;;;;;;;19.60;16.47;;;21.80;99.90;;;;;;4995010;28;20197;-74
2021/07/17 07:29:46;;;;;;;20.00;16.30;;;21.90;99.90;;;;;;4991741;28;20201;-74
2021/07/17 07:32:12;;;;;;;17.73;15.93;;;22.00;99.90;;;;;;4994147;28;20652;-73
2021/07/17 07:34:38;;;;;;;18.73;16.17;;;22.00;99.90;;;;;;4990050;28;20217;-72
2021/07/17 07:37:03;;;;;;;18.73;16.57;;;22.10;99.90;;;;;;4989321;28;20221;-72
2021/07/17 07:39:29;;;;;;;23.23;15.43;;;22.30;99.90;;;;;;4997750;28;20194;-74
2021/07/17 07:41:55;;;;;;;25.10;16.43;;;22.40;99.90;;;;;;4992120;28;20201;-74
2021/07/17 07:44:21;;;;;;;18.63;16.13;;;22.40;99.90;;;;;;4994288;28;20229;-74
2021/07/17 07:46:46;;;;;;;19.30;16.00;;;22.30;99.90;;;;;;4996937;28;20201;-74
2021/07/17 07:49:12;;;;;;;19.93;15.47;;;22.20;99.90;;;;;;4992045;28;20225;-73
2021/07/17 07:51:38;;;;;;;21.73;16.63;;;22.20;99.90;;;;;;4979285;28;20206;-74
2021/07/17 07:54:04;;;;;;;19.63;15.87;;;22.30;99.90;;;;;;4996195;28;20222;-72
2021/07/17 07:56:30;;;;;;;22.90;16.00;;;22.40;99.90;;;;;;4993885;28;20210;-73
2021/07/17 07:58:55;;;;;;;20.57;16.37;;;22.40;99.90;;;;;;4967598;28;20436;-74
2021/07/17 08:01:21;;;;;;;21.10;15.80;;;22.40;99.90;;;;;;5003407;28;20193;-74
2021/07/17 08:03:48;;;;;;;18.30;16.00;;;22.60;99.90;;;;;;4998500;28;20231;-74
2021/07/17 08:06:15;;;;;;;24.07;17.43;;;22.60;99.90;;;;;;4995639;28;20446;-74
2021/07/17 08:08:41;;;;;;;18.67;16.33;;;22.70;99.90;;;;;;4999555;28;20189;-73
2021/07/17 08:11:06;;;;;;;19.73;15.80;;;22.50;99.90;;;;;;4993941;28;20932;-73
2021/07/17 08:13:32;;;;;;;18.93;15.70;;;22.30;99.90;;;;;;4997009;28;20350;-73
2021/07/17 08:15:59;;;;;;;20.17;17.43;;;22.50;99.90;;;;;;4999074;28;20209;-73
2021/07/17 08:18:25;;;;;;;23.17;18.70;;;22.70;99.90;;;;;;4997498;28;20197;-74
2021/07/17 08:20:51;;;;;;;17.80;15.90;;;22.90;99.90;;;;;;4998891;28;20856;-73
2021/07/17 08:23:17;;;;;;;18.90;16.67;;;22.90;99.90;;;;;;4982052;28;20456;-73
2021/07/17 08:25:43;;;;;;;22.27;15.83;;;22.90;99.90;;;;;;4997260;28;20196;-73
2021/07/17 08:28:09;;;;;;;21.10;16.20;;;22.90;99.90;;;;;;4994744;28;20214;-73
2021/07/17 08:30:37;;;;;;;17.50;15.70;;;23.00;99.90;;;;;;4995189;28;20425;-73
2021/07/17 08:33:02;;;;;;;24.13;17.27;;;23.10;99.90;;;;;;4997269;28;20193;-74
2021/07/17 08:35:28;;;;;;;17.27;15.47;;;23.20;99.90;;;;;;4995771;28;20435;-73
2021/07/17 08:37:54;;;;;;;18.40;15.97;;;23.30;99.90;;;;;;4997699;28;20197;-73
2021/07/17 08:40:21;;;;;;;19.90;15.33;;;23.30;99.90;;;;;;4998064;28;20510;-73
2021/07/17 08:42:48;;;;;;;17.00;15.30;;;23.40;99.90;;;;;;4997019;28;20443;-73
2021/07/17 08:45:14;;;;;;;21.03;15.10;;;23.30;99.90;;;;;;4998869;28;20880;-74
2021/07/17 08:47:42;;;;;;;19.27;14.73;;;23.30;99.90;;;;;;4995683;28;20439;-74
2021/07/17 08:50:10;;;;;;;23.23;17.10;;;23.10;99.90;;;;;;5004228;28;20507;-74
2021/07/17 08:52:36;;;;;;;22.00;18.83;;;23.00;99.90;;;;;;4995429;28;20465;-74
2021/07/17 08:55:04;;;;;;;21.47;16.73;;;23.10;99.90;;;;;;4994825;28;20472;-73
2021/07/17 08:57:42;;;;;;;17.20;14.63;;;23.10;99.90;;;;;;4995627;28;20990;-74
2021/07/17 09:00:15;;;;;;;16.73;14.90;;;23.20;99.90;;;;;;4997516;28;20579;-74
2021/07/17 09:02:44;;;;;;;19.07;16.83;;;23.40;99.90;;;;;;4997235;28;20560;-74
2021/07/17 09:05:13;;;;;;;23.63;18.37;;;23.40;99.90;;;;;;4982695;28;20448;-74
2021/07/17 09:07:39;;;;;;;17.03;15.27;;;23.20;99.90;;;;;;4998405;28;20795;-73
2021/07/17 09:10:35;;;;;;;19.20;15.03;;;23.10;99.90;;;;;;4993464;28;20444;-74
2021/07/17 09:13:08;;;;;;;17.60;15.73;;;23.00;99.90;;;;;;4994333;28;20444;-74
2021/07/17 09:15:35;;;;;;;17.30;15.43;;;23.20;99.90;;;;;;4996176;28;20507;-77
2021/07/17 09:18:01;;;;;;;18.07;16.27;;;23.20;99.90;;;;;;4996945;28;20460;-73
2021/07/17 09:20:27;;;;;;;17.63;14.43;;;23.20;99.90;;;;;;4996082;28;20499;-74
2021/07/17 09:23:02;;;;;;;17.17;14.47;;;23.20;99.90;;;;;;4995632;28;20587;-74
2021/07/17 09:25:41;;;;;;;17.17;14.20;;;23.10;99.90;;;;;;4997779;28;20428;-73
2021/07/17 09:28:22;;;;;;;17.03;15.00;;;23.10;99.90;;;;;;4995526;28;20421;-73
2021/07/17 09:30:49;;;;;;;17.23;15.20;;;23.00;99.90;;;;;;4996813;28;20440;-74
2021/07/17 09:33:15;;;;;;;16.33;14.63;;;23.10;99.90;;;;;;5000463;28;20420;-72
2021/07/17 09:35:43;;;;;;;17.23;15.53;;;23.20;99.90;;;;;;4996954;28;20429;-74
2021/07/17 09:38:10;;;;;;;16.50;14.90;;;23.20;99.90;;;;;;4995931;28;20531;-73
2021/07/17 09:40:56;;;;;;;18.80;16.37;;;23.20;99.90;;;;;;4999769;28;20924;-73
2021/07/17 09:43:37;;;;;;;16.50;14.90;;;23.20;99.90;;;;;;4996017;28;20480;-75
2021/07/17 09:46:16;;;;;;;15.07;13.50;;;23.10;99.90;;;;;;4995162;28;20452;-73
2021/07/17 09:48:49;;;;;;;19.70;14.63;;;23.30;99.90;;;;;;4997696;28;22023;-74
2021/07/17 09:51:21;;;;;;;20.07;14.80;;;23.40;99.90;;;;;;4997205;28;20433;-73
2021/07/17 09:53:49;;;;;;;17.30;14.07;;;23.10;99.90;;;;;;4994926;28;20489;-73
2021/07/17 09:56:18;;;;;;;17.13;14.93;;;23.30;99.90;;;;;;4995826;28;20469;-75
2021/07/17 09:58:44;;;;;;;18.23;16.37;;;23.40;99.90;;;;;;4998975;28;20570;-73
2021/07/17 10:01:23;;;;;;;17.37;12.93;;;23.60;99.90;;;;;;4995641;28;20427;-74
2021/07/17 10:03:50;;;;;;;16.20;14.70;;;23.60;99.90;;;;;;4997691;28;20468;-73
2021/07/17 10:06:31;;;;;;;15.90;14.23;;;23.30;99.90;;;;;;4995973;28;20451;-74
2021/07/17 10:08:58;;;;;;;18.10;15.10;;;23.30;99.90;;;;;;4985703;28;21222;-74
2021/07/17 10:11:25;;;;;;;14.10;12.83;;;23.20;99.90;;;;;;4992770;28;20449;-74
2021/07/17 10:13:52;;;;;;;16.50;14.13;;;23.20;99.90;;;;;;4994116;28;20463;-74
2021/07/17 10:16:20;;;;;;;14.97;13.37;;;23.10;99.90;;;;;;4995315;28;20471;-74
2021/07/17 10:18:47;;;;;;;18.30;13.63;;;23.10;99.90;;;;;;4994082;28;20960;-74
2021/07/17 10:21:13;;;;;;;15.27;13.20;;;23.20;99.90;;;;;;4980137;28;20451;-74
2021/07/17 10:23:40;;;;;;;13.67;11.90;;;23.30;99.90;;;;;;4997169;28;20485;-73
2021/07/17 10:26:07;;;;;;;15.27;13.03;;;23.40;99.90;;;;;;4993747;28;20432;-74
2021/07/17 10:28:33;;;;;;;15.57;11.63;;;23.40;99.90;;;;;;4995127;28;20912;-74
2021/07/17 10:31:00;;;;;;;13.43;11.83;;;23.40;99.90;;;;;;4989722;28;21072;-74
2021/07/17 10:33:28;;;;;;;15.27;13.63;;;23.30;99.90;;;;;;4992047;28;20457;-73
2021/07/17 10:35:58;;;;;;;14.57;13.17;;;23.50;99.90;;;;;;4995690;28;21101;-73
2021/07/17 10:38:24;;;;;;;26.90;13.50;;;23.70;99.90;;;;;;4995823;28;21131;-73
2021/07/17 10:40:51;;;;;;;14.80;12.13;;;24.00;99.90;;;;;;4996481;28;20464;-75
2021/07/17 10:43:20;;;;;;;14.03;11.63;;;24.10;99.90;;;;;;4992882;28;20440;-74
2021/07/17 10:45:46;;;;;;;16.23;11.60;;;24.20;99.90;;;;;;5000583;28;20424;-74
2021/07/17 10:48:32;;;;;;;13.93;12.23;;;24.20;99.90;;;;;;4997785;28;20472;-74
2021/07/17 10:51:23;;;;;;;14.77;12.43;;;24.40;99.90;;;;;;4993122;28;20445;-74
2021/07/17 10:53:50;;;;;;;13.83;12.53;;;24.50;99.90;;;;;;4982966;28;20467;-73
2021/07/17 10:56:28;;;;;;;19.53;11.60;;;24.60;99.90;;;;;;4994976;28;20838;-74
2021/07/17 10:58:58;;;;;;;13.10;11.50;;;24.70;99.90;;;;;;4993459;28;20440;-73
2021/07/17 11:01:25;;;;;;;15.30;11.60;;;24.60;99.90;;;;;;4995079;28;20441;-73
2021/07/17 11:03:52;;;;;;;14.53;12.60;;;24.50;99.90;;;;;;4995186;28;20469;-74
2021/07/17 11:06:25;;;;;;;13.67;11.77;;;24.50;99.90;;;;;;4997260;28;20531;-73
2021/07/17 11:08:52;;;;;;;15.03;10.60;;;24.60;99.90;;;;;;4995993;28;20527;-74
2021/07/17 11:11:37;;;;;;;12.53;11.33;;;24.90;99.90;;;;;;4992104;28;20432;-74
2021/07/17 11:14:24;;;;;;;13.13;11.67;;;25.00;99.90;;;;;;4995705;28;20548;-74
2021/07/17 11:16:53;;;;;;;13.00;11.37;;;24.70;99.90;;;;;;4993152;28;20473;-74
2021/07/17 11:19:28;;;;;;;13.17;11.50;;;24.70;99.90;;;;;;4996796;28;21222;-74
2021/07/17 11:22:10;;;;;;;12.07;10.97;;;24.60;99.90;;;;;;4995741;28;20423;-74
2021/07/17 11:24:36;;;;;;;14.20;12.37;;;24.50;99.90;;;;;;4983976;28;20452;-74
2021/07/17 11:27:10;;;;;;;15.00;11.37;;;24.50;99.90;;;;;;4993805;28;20812;-74
2021/07/17 11:29:39;;;;;;;13.67;12.27;;;24.40;99.90;;;;;;4998734;28;20849;-73
2021/07/17 11:32:09;;;;;;;16.53;11.10;;;24.40;99.90;;;;;;4997575;28;20452;-73
2021/07/17 11:34:40;;;;;;;13.60;11.90;;;24.50;99.90;;;;;;4998035;28;20501;-73
2021/07/17 11:37:08;;;;;;;11.80;10.40;;;24.70;99.90;;;;;;4995362;28;20526;-73
2021/07/17 11:39:38;;;;;;;11.97;10.30;;;25.00;99.90;;;;;;5001932;28;20729;-75
2021/07/17 11:42:06;;;;;;;11.40;10.23;;;25.10;99.90;;;;;;4998037;28;20453;-72
2021/07/17 11:44:35;;;;;;;12.10;10.90;;;25.10;99.90;;;;;;4981021;28;20468;-74
2021/07/17 11:47:11;;;;;;;16.20;10.60;;;25.20;99.90;;;;;;5000235;28;20516;-74
2021/07/17 11:49:59;;;;;;;12.80;11.10;;;25.30;99.90;;;;;;5001561;28;20447;-74
2021/07/17 11:52:29;;;;;;;11.37;10.20;;;25.10;99.90;;;;;;5000859;28;20447;-74
2021/07/17 11:55:00;;;;;;;12.10;9.30;;;25.40;99.90;;;;;;4996249;28;20586;-73
2021/07/17 11:57:26;;;;;;;13.57;9.77;;;25.90;99.90;;;;;;4999142;28;20461;-73
2021/07/17 11:59:54;;;;;;;11.83;10.00;;;26.00;99.90;;;;;;4997619;28;20455;-73
2021/07/17 12:02:22;;;;;;;12.53;11.33;;;26.20;99.90;;;;;;5002268;28;20193;-73
2021/07/17 12:04:50;;;;;;;10.83;9.67;;;25.70;99.90;;;;;;5006044;28;20495;-74
2021/07/17 12:07:24;;;;;;;12.43;11.03;;;25.70;99.90;;;;;;4997820;28;20426;-74
2021/07/17 12:09:52;;;;;;;11.90;9.90;;;25.80;99.90;;;;;;5001889;28;22058;-74
2021/07/17 12:12:39;;;;;;;11.10;9.80;;;26.00;99.90;;;;;;5002150;28;20432;-74
2021/07/17 12:15:10;;;;;;;11.50;9.27;;;26.10;99.90;;;;;;5000402;28;20452;-74
2021/07/17 12:17:38;;;;;;;14.73;10.67;;;26.20;99.90;;;;;;5000929;28;20471;-74
2021/07/17 12:20:07;;;;;;;10.93;9.83;;;26.40;99.90;;;;;;4988892;28;20439;-73
2021/07/17 12:22:33;;;;;;;11.23;10.13;;;26.80;99.90;;;;;;5009811;28;20420;-73
2021/07/17 12:25:11;;;;;;;12.80;9.70;;;27.00;99.90;;;;;;5012777;28;20463;-72
2021/07/17 12:28:00;;;;;;;13.43;9.77;;;27.40;99.90;;;;;;5020388;28;20433;-73
2021/07/17 12:30:29;;;;;;;12.73;9.00;;;27.70;99.90;;;;;;5022037;28;21158;-73